createdAt,value
2019-01-21T00:01:35.964Z,20.63
2019-01-21T00:04:04.817Z,20.37
2019-01-21T00:06:33.420Z,19.23
2019-01-21T00:09:02.035Z,19.73
2019-01-21T00:11:30.666Z,20.43
2019-01-21T00:13:59.256Z,21.23
2019-01-21T00:16:27.856Z,20.40
2019-01-21T00:18:56.469Z,20.57
2019-01-21T00:21:25.069Z,20.67
2019-01-21T00:23:53.677Z,19.83
2019-01-21T00:26:22.372Z,21.07
2019-01-21T00:28:51.125Z,21.97
2019-01-21T00:31:19.933Z,21.03
2019-01-21T00:33:48.565Z,20.90
2019-01-21T00:36:17.153Z,20.63
2019-01-21T00:38:45.767Z,21.20
2019-01-21T00:41:14.381Z,21.23
2019-01-21T00:43:42.971Z,20.77
2019-01-21T00:46:11.569Z,19.90
2019-01-21T00:48:40.175Z,22.03
2019-01-21T00:51:08.779Z,21.60
2019-01-21T00:53:37.377Z,20.60
2019-01-21T00:56:05.995Z,21.83
2019-01-21T00:58:34.597Z,20.50
2019-01-21T01:01:03.197Z,19.90
2019-01-21T01:03:32.010Z,20.80
2019-01-21T01:06:00.612Z,22.73
2019-01-21T01:08:29.209Z,19.73
2019-01-21T01:10:57.839Z,20.50
2019-01-21T01:13:26.430Z,22.87
2019-01-21T01:15:55.028Z,22.00
2019-01-21T01:18:23.657Z,22.40
2019-01-21T01:20:52.258Z,21.77
2019-01-21T01:23:20.934Z,20.93
2019-01-21T01:25:49.543Z,20.93
2019-01-21T01:28:18.179Z,21.57
2019-01-21T01:30:46.829Z,20.53
2019-01-21T01:33:15.465Z,22.77
2019-01-21T01:35:44.161Z,22.47
2019-01-21T01:38:12.761Z,22.47
2019-01-21T01:40:41.371Z,20.37
2019-01-21T01:43:10.122Z,21.77
2019-01-21T01:45:38.893Z,20.80
2019-01-21T01:48:07.525Z,21.17
2019-01-21T01:50:36.129Z,20.73
2019-01-21T01:53:04.730Z,21.03
2019-01-21T01:55:33.652Z,22.57
2019-01-21T01:58:03.189Z,20.33
2019-01-21T02:00:31.884Z,19.67
2019-01-21T02:03:00.515Z,21.27
2019-01-21T02:05:29.108Z,21.57
2019-01-21T02:07:57.707Z,21.80
2019-01-21T02:10:26.323Z,21.80
2019-01-21T02:12:54.918Z,20.60
2019-01-21T02:15:23.508Z,20.70
2019-01-21T02:17:52.436Z,21.83
2019-01-21T02:20:21.133Z,20.33
2019-01-21T02:22:50.614Z,21.40
2019-01-21T02:25:19.243Z,22.03
2019-01-21T02:28:05.618Z,21.43
2019-01-21T02:30:41.948Z,18.87
2019-01-21T02:33:28.761Z,21.70
2019-01-21T02:36:07.038Z,22.03
2019-01-21T02:38:43.391Z,22.27
2019-01-21T02:41:19.215Z,21.97
2019-01-21T02:44:00.039Z,22.03
2019-01-21T02:46:47.749Z,21.43
2019-01-21T02:49:50.630Z,22.63
2019-01-21T02:52:41.119Z,22.83
2019-01-21T02:55:27.465Z,21.03
2019-01-21T02:58:09.096Z,21.23
2019-01-21T03:00:54.203Z,20.07
2019-01-21T03:03:51.104Z,21.23
2019-01-21T03:06:35.708Z,21.97
2019-01-21T03:09:22.505Z,22.77
2019-01-21T03:12:25.161Z,21.10
2019-01-21T03:15:01.607Z,20.47
2019-01-21T03:17:39.380Z,19.23
2019-01-21T03:20:33.180Z,20.87
2019-01-21T03:23:10.958Z,19.57
2019-01-21T03:26:01.534Z,19.33
2019-01-21T03:28:54.979Z,19.47
2019-01-21T03:31:35.341Z,20.63
2019-01-21T03:34:12.334Z,20.00
2019-01-21T03:37:03.113Z,19.67
2019-01-21T03:39:59.857Z,20.47
2019-01-21T03:42:47.572Z,20.90
2019-01-21T03:45:35.257Z,21.10
2019-01-21T03:48:16.746Z,20.80
2019-01-21T03:50:55.985Z,21.73
2019-01-21T03:53:42.963Z,20.37
2019-01-21T03:56:27.036Z,21.63
2019-01-21T03:59:10.517Z,19.77
2019-01-21T04:01:45.916Z,20.93
2019-01-21T04:04:39.782Z,19.70
2019-01-21T04:07:13.015Z,19.77
2019-01-21T04:09:45.955Z,19.90
2019-01-21T04:12:30.626Z,21.67
2019-01-21T04:15:20.478Z,20.07
2019-01-21T04:18:06.735Z,20.87
2019-01-21T04:20:54.428Z,20.60
2019-01-21T04:23:47.901Z,19.63
2019-01-21T04:26:30.572Z,20.83
2019-01-21T04:29:03.153Z,20.93
2019-01-21T04:31:51.842Z,20.13
2019-01-21T04:34:31.199Z,19.37
2019-01-21T04:37:18.958Z,20.33
2019-01-21T04:40:05.299Z,18.97
2019-01-21T04:43:05.273Z,19.60
2019-01-21T04:45:58.714Z,20.10
2019-01-21T04:48:40.953Z,20.20
2019-01-21T04:51:37.628Z,18.87
2019-01-21T04:54:23.851Z,20.07
2019-01-21T04:57:15.120Z,18.27
2019-01-21T04:59:56.671Z,19.23
2019-01-21T05:02:56.260Z,19.20
2019-01-21T05:05:32.100Z,19.87
2019-01-21T05:08:18.153Z,17.73
2019-01-21T05:11:10.121Z,19.97
2019-01-21T05:14:15.820Z,19.57
2019-01-21T05:17:01.981Z,18.43
2019-01-21T05:20:01.974Z,18.93
2019-01-21T05:22:37.722Z,19.50
2019-01-21T05:25:18.104Z,18.40
2019-01-21T05:28:21.265Z,19.77
2019-01-21T05:31:12.335Z,18.63
2019-01-21T05:34:12.071Z,19.53
2019-01-21T05:36:52.168Z,20.37
2019-01-21T05:39:33.227Z,20.57
2019-01-21T05:42:26.799Z,21.17
2019-01-21T05:45:14.801Z,21.67
2019-01-21T05:47:55.555Z,21.67
2019-01-21T05:50:52.110Z,20.77
2019-01-21T05:53:42.575Z,20.90
2019-01-21T05:56:36.085Z,22.47
2019-01-21T05:59:29.874Z,22.37
2019-01-21T06:02:01.740Z,22.30
2019-01-21T06:04:43.215Z,22.80
2019-01-21T06:07:31.022Z,22.33
2019-01-21T06:10:27.489Z,21.80
2019-01-21T06:13:21.133Z,24.23
2019-01-21T06:16:07.423Z,24.07
2019-01-21T06:18:57.351Z,24.47
2019-01-21T06:21:45.512Z,22.63
2019-01-21T06:24:23.919Z,21.60
2019-01-21T06:27:26.644Z,23.10
2019-01-21T06:30:05.749Z,24.77
2019-01-21T06:32:51.736Z,25.77
2019-01-21T06:35:45.428Z,26.43
2019-01-21T06:38:20.883Z,25.53
2019-01-21T06:41:13.259Z,27.40
2019-01-21T06:44:04.394Z,27.60
2019-01-21T06:46:55.505Z,24.97
2019-01-21T06:49:41.718Z,27.10
2019-01-21T06:52:29.528Z,26.57
2019-01-21T06:55:20.383Z,30.27
2019-01-21T06:58:12.879Z,28.13
2019-01-21T07:00:54.808Z,27.70
2019-01-21T07:03:29.666Z,30.03
2019-01-21T07:06:22.442Z,29.97
2019-01-21T07:08:58.851Z,28.63
2019-01-21T07:11:48.679Z,29.53
2019-01-21T07:14:35.027Z,29.67
2019-01-21T07:17:25.906Z,29.73
2019-01-21T07:20:31.814Z,29.47
2019-01-21T07:23:34.670Z,27.87
2019-01-21T07:26:16.274Z,29.90
2019-01-21T07:28:48.484Z,30.17
2019-01-21T07:31:22.702Z,30.57
2019-01-21T07:34:22.470Z,30.20
2019-01-21T07:37:12.956Z,30.97
2019-01-21T07:39:45.364Z,29.33
2019-01-21T07:42:31.444Z,29.10
2019-01-21T07:45:05.085Z,29.67
2019-01-21T07:48:02.270Z,28.97
2019-01-21T07:50:34.879Z,29.87
2019-01-21T07:53:17.028Z,29.07
2019-01-21T07:56:07.416Z,30.93
2019-01-21T07:58:42.832Z,28.60
2019-01-21T08:01:33.598Z,30.80
2019-01-21T08:04:27.850Z,29.03
2019-01-21T08:07:30.726Z,30.23
2019-01-21T08:10:21.466Z,30.10
2019-01-21T08:13:14.976Z,29.33
2019-01-21T08:16:05.436Z,29.40
2019-01-21T08:18:53.118Z,30.13
2019-01-21T08:21:46.716Z,29.23
2019-01-21T08:24:24.536Z,30.50
2019-01-21T08:27:02.970Z,28.80
2019-01-21T08:29:37.822Z,30.90
2019-01-21T08:32:23.651Z,30.87
2019-01-21T08:34:59.556Z,31.00
2019-01-21T08:37:56.331Z,30.73
2019-01-21T08:40:42.282Z,28.50
2019-01-21T08:43:32.492Z,30.60
2019-01-21T08:46:38.258Z,32.03
2019-01-21T08:49:30.764Z,32.00
2019-01-21T08:52:08.396Z,30.30
2019-01-21T08:55:02.043Z,32.13
2019-01-21T08:57:49.729Z,31.47
2019-01-21T09:00:42.107Z,32.73
2019-01-21T09:03:20.861Z,31.87
2019-01-21T09:06:07.440Z,32.80
2019-01-21T09:08:53.514Z,33.20
2019-01-21T09:11:39.691Z,31.33
2019-01-21T09:14:30.535Z,32.80
2019-01-21T09:17:16.961Z,32.83
2019-01-21T09:20:10.787Z,33.47
2019-01-21T09:22:41.535Z,33.33
2019-01-21T09:25:29.212Z,32.80
2019-01-21T09:28:07.739Z,32.30
2019-01-21T09:30:43.599Z,31.63
2019-01-21T09:33:34.263Z,33.93
2019-01-21T09:36:23.484Z,33.63
2019-01-21T09:39:11.174Z,34.23
2019-01-21T09:41:58.872Z,34.47
2019-01-21T09:44:46.604Z,33.63
2019-01-21T09:47:14.362Z,35.73
2019-01-21T09:49:43.801Z,34.90
2019-01-21T09:52:15.749Z,35.60
2019-01-21T09:54:44.349Z,33.30
2019-01-21T09:57:18.667Z,31.83
2019-01-21T09:59:50.169Z,33.23
2019-01-21T10:02:20.273Z,32.83
2019-01-21T10:04:51.715Z,34.40
2019-01-21T10:07:37.772Z,33.17
2019-01-21T10:10:28.625Z,35.37
2019-01-21T10:13:25.249Z,34.53
2019-01-21T10:16:16.235Z,33.50
2019-01-21T10:19:13.309Z,33.83
2019-01-21T10:21:57.845Z,33.50
2019-01-21T10:24:44.089Z,33.37
2019-01-21T10:27:17.511Z,31.00
2019-01-21T10:29:55.814Z,30.83
2019-01-21T10:32:55.136Z,32.77
2019-01-21T10:35:37.066Z,32.97
2019-01-21T10:38:30.811Z,32.60
2019-01-21T10:41:24.078Z,31.90
2019-01-21T10:44:17.543Z,31.23
2019-01-21T10:47:01.218Z,33.40
2019-01-21T10:50:01.096Z,32.77
2019-01-21T10:52:51.594Z,31.37
2019-01-21T10:55:29.463Z,29.43
2019-01-21T10:58:26.136Z,29.63
2019-01-21T11:01:21.154Z,30.30
2019-01-21T11:04:18.043Z,29.67
2019-01-21T11:06:52.589Z,27.90
2019-01-21T11:09:26.791Z,30.93
2019-01-21T11:12:25.597Z,30.50
2019-01-21T11:15:19.347Z,29.27
2019-01-21T11:17:56.083Z,30.37
2019-01-21T11:20:46.038Z,31.20
2019-01-21T11:23:36.753Z,30.40
2019-01-21T11:26:22.861Z,30.53
2019-01-21T11:29:13.207Z,29.43
2019-01-21T11:32:06.796Z,29.70
2019-01-21T11:34:48.607Z,29.87
2019-01-21T11:37:42.327Z,35.60
2019-01-21T11:40:36.099Z,34.87
2019-01-21T11:43:22.303Z,35.87
2019-01-21T11:46:06.987Z,36.67
2019-01-21T11:49:03.866Z,35.80
2019-01-21T11:51:48.315Z,35.57
2019-01-21T11:54:30.354Z,34.80
2019-01-21T11:57:06.333Z,34.63
2019-01-21T11:59:47.605Z,35.80
2019-01-21T12:02:33.871Z,35.00
2019-01-21T12:05:21.682Z,36.83
2019-01-21T12:08:00.008Z,33.30
2019-01-21T12:10:46.190Z,31.43
2019-01-21T12:13:22.805Z,36.67
2019-01-21T12:16:25.499Z,40.10
2019-01-21T12:19:07.361Z,36.00
2019-01-21T12:22:06.967Z,37.83
2019-01-21T12:24:38.260Z,37.03
2019-01-21T12:27:29.013Z,36.37
2019-01-21T12:30:19.915Z,35.17
2019-01-21T12:32:54.546Z,36.93
2019-01-21T12:35:38.251Z,37.53
2019-01-21T12:38:27.718Z,36.10
2019-01-21T12:41:12.732Z,36.07
2019-01-21T12:43:58.362Z,35.33
2019-01-21T12:46:44.612Z,36.77
2019-01-21T12:49:30.957Z,36.30
2019-01-21T12:52:18.644Z,37.93
2019-01-21T12:54:59.638Z,37.67
2019-01-21T12:58:02.223Z,38.73
2019-01-21T13:00:53.170Z,37.87
2019-01-21T13:03:35.836Z,37.37
2019-01-21T13:06:12.570Z,37.10
2019-01-21T13:08:46.741Z,38.20
2019-01-21T13:11:24.867Z,37.60
2019-01-21T13:14:12.570Z,37.37
2019-01-21T13:17:09.161Z,38.13
2019-01-21T13:19:50.294Z,37.90
2019-01-21T13:22:31.499Z,36.40
2019-01-21T13:25:17.507Z,36.97
2019-01-21T13:27:56.147Z,35.60
2019-01-21T13:30:34.215Z,38.17
2019-01-21T13:33:21.923Z,35.47
2019-01-21T13:35:56.179Z,37.50
2019-01-21T13:38:39.465Z,35.97
2019-01-21T13:41:25.299Z,36.90
2019-01-21T13:44:22.468Z,37.17
2019-01-21T13:47:10.244Z,33.40
2019-01-21T13:49:51.491Z,36.40
2019-01-21T13:52:41.919Z,37.60
2019-01-21T13:55:16.470Z,36.73
2019-01-21T13:58:19.351Z,37.40
2019-01-21T14:01:00.506Z,37.73
2019-01-21T14:03:42.403Z,37.33
2019-01-21T14:06:28.517Z,36.03
2019-01-21T14:09:18.661Z,37.77
2019-01-21T14:11:55.443Z,37.57
2019-01-21T14:14:41.519Z,37.80
2019-01-21T14:17:35.083Z,37.20
2019-01-21T14:20:34.851Z,36.43
2019-01-21T14:23:07.721Z,36.03
2019-01-21T14:25:55.691Z,34.67
2019-01-21T14:28:46.157Z,36.90
2019-01-21T14:31:36.847Z,36.30
2019-01-21T14:34:19.061Z,36.77
2019-01-21T14:36:58.801Z,36.80
2019-01-21T14:39:52.395Z,37.27
2019-01-21T14:42:43.121Z,36.93
2019-01-21T14:45:39.650Z,37.67
2019-01-21T14:48:22.480Z,38.63
2019-01-21T14:51:10.173Z,37.30
2019-01-21T14:53:58.149Z,36.30
2019-01-21T14:56:44.380Z,37.10
2019-01-21T14:59:28.876Z,37.33
2019-01-21T15:02:30.644Z,35.73
2019-01-21T15:05:21.449Z,37.90
2019-01-21T15:08:10.599Z,36.83
2019-01-21T15:10:58.279Z,38.60
2019-01-21T15:13:45.341Z,37.27
2019-01-21T15:16:33.092Z,37.30
2019-01-21T15:19:20.861Z,37.47
2019-01-21T15:22:08.611Z,37.80
2019-01-21T15:24:59.363Z,37.60
2019-01-21T15:27:49.857Z,37.70
2019-01-21T15:30:27.069Z,36.73
2019-01-21T15:33:13.438Z,35.80
2019-01-21T15:36:04.450Z,36.63
2019-01-21T15:38:40.159Z,36.97
2019-01-21T15:41:15.188Z,36.03
2019-01-21T15:43:53.135Z,37.47
2019-01-21T15:46:40.940Z,38.37
2019-01-21T15:49:19.016Z,34.33
2019-01-21T15:52:02.034Z,36.43
2019-01-21T15:54:55.726Z,37.77
2019-01-21T15:57:27.541Z,37.27
2019-01-21T16:00:15.244Z,35.77
2019-01-21T16:03:01.670Z,36.07
2019-01-21T16:05:52.294Z,36.97
2019-01-21T16:08:43.027Z,38.60
2019-01-21T16:11:39.484Z,36.47
2019-01-21T16:14:12.796Z,38.33
2019-01-21T16:17:03.488Z,37.07
2019-01-21T16:19:42.518Z,38.23
2019-01-21T16:22:28.904Z,39.00
2019-01-21T16:25:00.408Z,38.27
2019-01-21T16:27:54.302Z,39.37
2019-01-21T16:30:28.387Z,39.27
2019-01-21T16:33:16.832Z,36.60
2019-01-21T16:36:22.468Z,38.60
2019-01-21T16:39:05.302Z,37.23
2019-01-21T16:41:49.910Z,37.07
2019-01-21T16:44:18.507Z,38.17
2019-01-21T16:46:47.128Z,39.13
2019-01-21T16:49:15.752Z,36.63
2019-01-21T16:51:44.351Z,38.17
2019-01-21T16:54:12.952Z,37.67
2019-01-21T16:56:41.574Z,37.90
2019-01-21T16:59:10.888Z,39.60
2019-01-21T17:01:39.482Z,38.70
2019-01-21T17:04:08.095Z,39.57
2019-01-21T17:06:36.750Z,38.90
2019-01-21T17:09:08.010Z,39.90
2019-01-21T17:11:36.622Z,38.60
2019-01-21T17:14:09.734Z,40.07
2019-01-21T17:16:38.340Z,38.57
2019-01-21T17:19:06.990Z,39.20
2019-01-21T17:24:04.466Z,38.77
2019-01-21T17:26:33.098Z,39.13
2019-01-21T17:29:01.708Z,39.50
2019-01-21T17:31:30.304Z,40.33
2019-01-21T17:33:58.910Z,39.97
2019-01-21T17:36:27.516Z,39.00
2019-01-21T17:38:56.107Z,39.90
2019-01-21T17:41:24.766Z,39.70
2019-01-21T17:43:53.358Z,38.93
2019-01-21T17:46:22.000Z,40.80
2019-01-21T17:48:50.668Z,40.13
2019-01-21T17:51:21.026Z,41.20
2019-01-21T17:53:51.436Z,39.50
2019-01-21T17:56:20.360Z,41.10
2019-01-21T17:58:48.962Z,43.00
2019-01-21T18:01:17.564Z,40.23
2019-01-21T18:03:46.194Z,43.13
2019-01-21T18:06:14.776Z,41.83
2019-01-21T18:08:43.363Z,41.10
2019-01-21T18:11:11.964Z,40.47
2019-01-21T18:13:40.562Z,41.20
2019-01-21T18:16:09.308Z,39.60
2019-01-21T18:18:37.930Z,42.87
2019-01-21T18:21:07.470Z,42.17
2019-01-21T18:23:36.209Z,40.73
2019-01-21T18:26:04.842Z,42.53
2019-01-21T18:28:33.425Z,40.80
2019-01-21T18:31:02.014Z,43.93
2019-01-21T18:33:30.644Z,42.03
2019-01-21T18:35:59.251Z,41.13
2019-01-21T18:38:27.893Z,42.33
2019-01-21T18:40:56.505Z,43.47
2019-01-21T18:43:25.107Z,43.20
2019-01-21T18:45:53.716Z,43.23
2019-01-21T18:48:22.318Z,42.23
2019-01-21T18:50:50.916Z,43.77
2019-01-21T18:53:19.493Z,43.93
2019-01-21T18:55:48.115Z,43.30
2019-01-21T18:58:16.715Z,45.03
2019-01-21T19:00:45.327Z,43.27
2019-01-21T19:03:14.012Z,43.07
2019-01-21T19:05:42.625Z,43.00
2019-01-21T19:08:11.234Z,45.00
2019-01-21T19:10:39.853Z,44.63
2019-01-21T19:13:08.447Z,44.47
2019-01-21T19:15:37.044Z,42.83
2019-01-21T19:18:05.677Z,43.40
2019-01-21T19:20:34.277Z,44.90
2019-01-21T19:23:02.891Z,46.47
2019-01-21T19:25:31.505Z,43.90
2019-01-21T19:28:00.079Z,43.37
2019-01-21T19:30:28.681Z,43.63
2019-01-21T19:32:57.303Z,45.33
2019-01-21T19:35:30.177Z,46.20
2019-01-21T19:37:58.912Z,44.00
2019-01-21T19:40:27.565Z,45.93
2019-01-21T19:42:56.161Z,46.07
2019-01-21T19:45:24.761Z,45.50
2019-01-21T19:47:53.377Z,45.53
2019-01-21T19:50:21.968Z,44.70
2019-01-21T19:52:50.559Z,45.90
2019-01-21T19:55:26.694Z,46.07
2019-01-21T19:57:55.292Z,44.77
2019-01-21T20:00:23.985Z,45.40
2019-01-21T20:02:52.617Z,44.60
2019-01-21T20:05:21.283Z,47.60
2019-01-21T20:07:49.884Z,46.63
2019-01-21T20:10:18.925Z,45.67
2019-01-21T20:12:47.527Z,46.67
2019-01-21T20:15:16.239Z,49.47
2019-01-21T20:17:45.060Z,47.37
2019-01-21T20:20:15.241Z,47.27
2019-01-21T20:22:43.967Z,48.40
2019-01-21T20:25:13.450Z,46.27
2019-01-21T20:27:42.149Z,45.27
2019-01-21T20:30:12.076Z,46.20
2019-01-21T20:32:42.335Z,45.97
2019-01-21T20:35:11.269Z,48.27
2019-01-21T20:37:40.005Z,47.30
2019-01-21T20:40:09.860Z,47.20
2019-01-21T20:42:38.631Z,47.37
2019-01-21T20:45:07.669Z,47.97
2019-01-21T20:47:36.427Z,47.43
2019-01-21T20:50:05.949Z,48.40
2019-01-21T20:52:34.694Z,45.40
2019-01-21T20:55:03.565Z,46.73
2019-01-21T20:57:32.299Z,48.00
2019-01-21T21:00:01.025Z,49.13
2019-01-21T21:02:29.784Z,46.70
2019-01-21T21:04:58.441Z,45.63
2019-01-21T21:07:27.069Z,45.13
2019-01-21T21:09:55.755Z,47.70
2019-01-21T21:12:25.924Z,46.10
2019-01-21T21:14:54.645Z,48.87
2019-01-21T21:17:23.295Z,45.67
2019-01-21T21:19:51.943Z,45.10
2019-01-21T21:22:21.133Z,47.53
2019-01-21T21:24:49.838Z,45.50
2019-01-21T21:27:18.485Z,46.87
2019-01-21T21:29:47.124Z,46.33
2019-01-21T21:32:15.799Z,45.43
2019-01-21T21:34:44.471Z,45.53
2019-01-21T21:37:13.119Z,45.20
2019-01-21T21:39:41.777Z,46.37
2019-01-21T21:42:10.808Z,44.10
2019-01-21T21:44:39.484Z,45.67
2019-01-21T21:47:08.173Z,46.60
2019-01-21T21:49:36.831Z,46.67
2019-01-21T21:52:05.473Z,46.37
2019-01-21T21:54:34.146Z,46.10
2019-01-21T21:57:02.796Z,46.00
2019-01-21T21:59:31.448Z,47.80
2019-01-21T22:02:00.124Z,45.77
2019-01-21T22:04:28.772Z,45.40
2019-01-21T22:06:57.438Z,47.93
2019-01-21T22:09:26.292Z,50.03
2019-01-21T22:11:54.926Z,49.20
2019-01-21T22:14:23.586Z,46.43
2019-01-21T22:16:52.246Z,46.40
2019-01-21T22:19:20.898Z,48.77
2019-01-21T22:21:49.558Z,49.83
2019-01-21T22:24:18.236Z,48.40
2019-01-21T22:26:46.948Z,47.33
2019-01-21T22:29:15.714Z,50.13
2019-01-21T22:31:44.446Z,44.83
2019-01-21T22:34:13.178Z,49.67
2019-01-21T22:36:41.945Z,47.73
2019-01-21T22:39:10.670Z,45.43
2019-01-21T22:41:39.402Z,48.07
2019-01-21T22:44:08.138Z,50.53
2019-01-21T22:46:36.856Z,47.97
2019-01-21T22:49:05.869Z,49.47
2019-01-21T22:51:34.622Z,48.63
2019-01-21T22:54:03.346Z,51.37
2019-01-21T22:56:32.054Z,48.57
2019-01-21T22:59:00.796Z,47.33
2019-01-21T23:01:30.882Z,47.03
2019-01-21T23:03:59.604Z,48.63
2019-01-21T23:06:28.355Z,48.60
2019-01-21T23:08:57.078Z,47.77
2019-01-21T23:11:25.794Z,50.77
2019-01-21T23:13:54.542Z,48.70
2019-01-21T23:16:23.310Z,47.70
2019-01-21T23:18:52.031Z,47.63
2019-01-21T23:21:20.806Z,47.33
2019-01-21T23:23:49.576Z,48.50
2019-01-21T23:26:18.308Z,49.53
2019-01-21T23:28:47.252Z,46.10
2019-01-21T23:31:15.967Z,46.93
2019-01-21T23:33:44.698Z,45.17
2019-01-21T23:36:13.476Z,46.23
2019-01-21T23:38:42.232Z,45.87
2019-01-21T23:41:10.957Z,47.60
2019-01-21T23:43:39.698Z,44.10
2019-01-21T23:46:08.424Z,46.10
2019-01-21T23:48:37.162Z,45.37
2019-01-21T23:51:05.930Z,45.67
2019-01-21T23:53:34.660Z,45.17
2019-01-21T23:56:03.571Z,45.37
2019-01-21T23:58:32.318Z,46.20
